createdAt,value
2022-10-21T00:01:07.426Z,97.00
2022-10-21T00:03:39.073Z,97.20
2022-10-21T00:06:09.993Z,97.30
2022-10-21T00:08:39.243Z,97.30
2022-10-21T00:11:09.175Z,97.20
2022-10-21T00:13:39.741Z,97.20
2022-10-21T00:16:11.384Z,97.00
2022-10-21T00:18:41.528Z,96.80
2022-10-21T00:21:12.907Z,96.80
2022-10-21T00:23:43.940Z,96.70
2022-10-21T00:26:13.686Z,96.70
2022-10-21T00:28:42.328Z,96.70
2022-10-21T00:31:13.057Z,96.70
2022-10-21T00:33:41.492Z,96.80
2022-10-21T00:36:15.468Z,96.70
2022-10-21T00:38:45.625Z,97.00
2022-10-21T00:41:16.228Z,96.70
2022-10-21T00:44:02.395Z,96.70
2022-10-21T00:46:36.525Z,96.80
2022-10-21T00:49:12.711Z,97.00
2022-10-21T00:51:41.438Z,97.20
2022-10-21T00:54:09.910Z,97.40
2022-10-21T00:56:41.845Z,97.30
2022-10-21T00:59:09.959Z,97.10
2022-10-21T01:01:38.406Z,97.40
2022-10-21T01:04:06.459Z,97.30
2022-10-21T01:06:36.291Z,97.20
2022-10-21T01:09:05.930Z,97.10
2022-10-21T01:11:41.714Z,97.20
2022-10-21T01:14:12.823Z,97.30
2022-10-21T01:16:59.535Z,97.40
2022-10-21T01:19:30.365Z,97.30
2022-10-21T01:22:15.074Z,97.30
2022-10-21T01:24:58.764Z,97.50
2022-10-21T01:27:33.728Z,97.50
2022-10-21T01:30:13.373Z,97.40
2022-10-21T01:32:48.184Z,97.40
2022-10-21T01:35:38.805Z,97.90
2022-10-21T01:38:24.720Z,97.80
2022-10-21T01:41:39.376Z,97.70
2022-10-21T01:44:18.927Z,97.60
2022-10-21T01:47:26.177Z,97.60
2022-10-21T01:50:00.814Z,97.50
2022-10-21T01:52:30.429Z,97.50
2022-10-21T01:55:10.391Z,97.50
2022-10-21T01:57:42.641Z,97.50
2022-10-21T02:00:11.710Z,97.40
2022-10-21T02:02:43.291Z,97.50
2022-10-21T02:05:18.017Z,97.50
2022-10-21T02:07:45.931Z,97.50
2022-10-21T02:10:14.430Z,97.60
2022-10-21T02:12:45.729Z,97.60
2022-10-21T02:15:16.203Z,97.50
2022-10-21T02:17:52.203Z,97.60
2022-10-21T02:20:21.975Z,97.50
2022-10-21T02:22:50.312Z,97.40
2022-10-21T02:25:26.198Z,97.30
2022-10-21T02:27:54.790Z,97.70
2022-10-21T02:30:23.160Z,97.50
2022-10-21T02:33:09.123Z,97.50
2022-10-21T02:35:42.543Z,98.00
2022-10-21T02:38:23.954Z,97.90
2022-10-21T02:41:02.457Z,97.70
2022-10-21T02:43:34.671Z,97.60
2022-10-21T02:46:11.446Z,97.80
2022-10-21T02:48:41.169Z,97.70
2022-10-21T02:51:09.792Z,97.70
2022-10-21T02:53:37.572Z,97.60
2022-10-21T02:56:06.183Z,97.70
2022-10-21T02:58:33.992Z,97.80
2022-10-21T03:01:02.495Z,97.60
2022-10-21T03:03:30.398Z,97.70
2022-10-21T03:06:01.893Z,97.80
2022-10-21T03:08:29.731Z,97.80
2022-10-21T03:10:58.088Z,97.90
2022-10-21T03:13:25.876Z,98.20
2022-10-21T03:15:53.939Z,98.10
2022-10-21T03:18:24.094Z,98.30
2022-10-21T03:20:52.355Z,98.40
2022-10-21T03:23:20.966Z,98.30
2022-10-21T03:25:49.497Z,98.40
2022-10-21T03:28:20.944Z,98.30
2022-10-21T03:30:49.193Z,98.40
2022-10-21T03:33:17.059Z,98.60
2022-10-21T03:35:45.212Z,98.70
2022-10-21T03:38:13.234Z,98.70
2022-10-21T03:40:41.349Z,98.70
2022-10-21T03:43:09.122Z,98.80
2022-10-21T03:45:37.352Z,98.90
2022-10-21T03:48:05.232Z,98.90
2022-10-21T03:50:33.434Z,98.90
2022-10-21T03:53:09.769Z,99.10
2022-10-21T03:55:41.885Z,99.10
2022-10-21T03:58:09.641Z,99.00
2022-10-21T04:00:38.187Z,99.10
2022-10-21T04:03:05.934Z,99.10
2022-10-21T04:05:34.608Z,99.10
2022-10-21T04:08:02.804Z,99.20
2022-10-21T04:10:30.813Z,99.30
2022-10-21T04:12:58.641Z,99.20
2022-10-21T04:15:26.970Z,99.30
2022-10-21T04:17:54.737Z,99.30
2022-10-21T04:20:25.033Z,99.30
2022-10-21T04:22:52.835Z,99.30
2022-10-21T04:25:20.950Z,99.30
2022-10-21T04:27:48.849Z,99.50
2022-10-21T04:30:17.021Z,99.50
2022-10-21T04:32:44.911Z,99.40
2022-10-21T04:35:13.847Z,99.40
2022-10-21T04:37:44.833Z,99.20
2022-10-21T04:40:12.960Z,99.30
2022-10-21T04:42:40.893Z,99.20
2022-10-21T04:45:09.521Z,99.20
2022-10-21T04:47:37.566Z,99.30
2022-10-21T04:50:06.382Z,99.20
2022-10-21T04:52:34.113Z,99.30
2022-10-21T04:55:02.316Z,99.20
2022-10-21T04:57:30.120Z,99.10
2022-10-21T05:00:01.150Z,99.20
2022-10-21T05:02:29.002Z,99.10
2022-10-21T05:04:57.473Z,99.40
2022-10-21T05:07:25.341Z,99.10
2022-10-21T05:09:53.407Z,99.00
2022-10-21T05:12:21.292Z,99.00
2022-10-21T05:14:49.662Z,99.00
2022-10-21T05:17:17.426Z,99.00
2022-10-21T05:19:45.600Z,98.90
2022-10-21T05:22:13.452Z,98.80
2022-10-21T05:24:41.546Z,98.80
2022-10-21T05:27:09.526Z,98.90
2022-10-21T05:29:37.582Z,98.70
2022-10-21T05:32:05.795Z,99.10
2022-10-21T05:34:34.196Z,98.90
2022-10-21T05:37:01.969Z,98.80
2022-10-21T05:39:33.003Z,98.80
2022-10-21T05:42:00.816Z,98.90
2022-10-21T05:44:28.975Z,98.80
2022-10-21T05:46:57.111Z,98.70
2022-10-21T05:49:25.294Z,98.80
2022-10-21T05:51:53.156Z,98.70
2022-10-21T05:54:21.304Z,98.70
2022-10-21T05:56:49.694Z,98.60
2022-10-21T05:59:17.917Z,98.70
2022-10-21T06:01:45.843Z,98.70
2022-10-21T06:04:14.102Z,98.70
2022-10-21T06:06:42.046Z,98.60
2022-10-21T06:09:10.163Z,98.60
2022-10-21T06:11:38.295Z,98.50
2022-10-21T06:14:06.463Z,98.50
2022-10-21T06:16:36.881Z,98.30
2022-10-21T06:19:04.950Z,98.40
2022-10-21T06:21:32.706Z,98.60
2022-10-21T06:24:00.999Z,98.40
2022-10-21T06:26:30.951Z,98.40
2022-10-21T06:29:01.446Z,98.20
2022-10-21T06:31:29.266Z,98.10
2022-10-21T06:33:57.323Z,98.00
2022-10-21T06:36:25.101Z,97.90
2022-10-21T06:38:53.235Z,97.80
2022-10-21T06:41:20.966Z,97.70
2022-10-21T06:43:49.048Z,97.60
2022-10-21T06:46:20.676Z,97.40
2022-10-21T06:48:55.146Z,97.20
2022-10-21T06:51:26.112Z,97.20
2022-10-21T06:54:03.851Z,97.30
2022-10-21T06:56:33.913Z,97.20
2022-10-21T06:59:08.023Z,97.10
2022-10-21T07:01:48.357Z,97.20
2022-10-21T07:04:27.016Z,96.90
2022-10-21T07:06:59.665Z,96.90
2022-10-21T07:09:33.605Z,96.90
2022-10-21T07:12:02.307Z,96.80
2022-10-21T07:14:31.063Z,96.60
2022-10-21T07:17:06.813Z,96.70
2022-10-21T07:19:35.017Z,96.70
2022-10-21T07:22:02.889Z,97.00
2022-10-21T07:24:33.489Z,96.50
2022-10-21T07:27:04.328Z,96.50
2022-10-21T07:29:35.889Z,96.50
2022-10-21T07:32:04.670Z,96.50
2022-10-21T07:34:33.298Z,96.30
2022-10-21T07:37:01.135Z,96.30
2022-10-21T07:39:31.474Z,96.30
2022-10-21T07:41:59.302Z,96.20
2022-10-21T07:44:32.506Z,96.10
2022-10-21T07:47:00.333Z,96.00
2022-10-21T07:49:28.457Z,95.90
2022-10-21T07:51:58.482Z,95.80
2022-10-21T07:54:28.899Z,95.70
2022-10-21T07:57:04.092Z,95.70
2022-10-21T07:59:32.255Z,95.40
2022-10-21T08:02:04.792Z,95.40
2022-10-21T08:04:39.710Z,95.20
2022-10-21T08:07:13.179Z,95.20
2022-10-21T08:09:42.110Z,95.20
2022-10-21T08:12:15.476Z,95.20
2022-10-21T08:14:44.548Z,95.10
2022-10-21T08:17:14.413Z,95.00
2022-10-21T08:19:45.666Z,94.50
2022-10-21T08:22:21.276Z,94.70
2022-10-21T08:24:52.185Z,94.60
2022-10-21T08:27:20.225Z,94.40
2022-10-21T08:29:49.078Z,94.10
2022-10-21T08:32:20.783Z,93.90
2022-10-21T08:34:51.027Z,93.70
2022-10-21T08:37:25.923Z,93.50
2022-10-21T08:39:57.436Z,93.70
2022-10-21T08:42:32.076Z,93.60
2022-10-21T08:45:03.730Z,93.60
2022-10-21T08:47:46.129Z,92.80
2022-10-21T08:50:22.007Z,92.80
2022-10-21T08:53:02.007Z,92.70
2022-10-21T08:55:42.345Z,92.10
2022-10-21T08:58:24.292Z,92.30
2022-10-21T09:01:01.980Z,92.20
2022-10-21T09:03:36.512Z,91.90
2022-10-21T09:06:16.732Z,91.90
2022-10-21T09:08:58.261Z,91.90
2022-10-21T09:11:35.182Z,91.60
2022-10-21T09:14:25.958Z,91.60
2022-10-21T09:17:27.543Z,91.10
2022-10-21T09:20:27.558Z,90.80
2022-10-21T09:22:58.767Z,90.50
2022-10-21T09:25:47.597Z,90.90
2022-10-21T09:28:17.939Z,90.30
2022-10-21T09:30:47.098Z,90.70
2022-10-21T09:33:30.183Z,90.50
2022-10-21T09:36:03.750Z,90.20
2022-10-21T09:38:53.666Z,90.30
2022-10-21T09:41:30.520Z,90.00
2022-10-21T09:43:58.811Z,90.00
2022-10-21T09:46:26.695Z,89.80
2022-10-21T09:49:32.445Z,90.00
2022-10-21T09:51:46.481Z,89.30
2022-10-21T09:54:23.099Z,89.50
2022-10-21T09:57:07.198Z,88.50
2022-10-21T10:00:00.399Z,88.60
2022-10-21T10:02:47.745Z,88.50
2022-10-21T10:05:41.517Z,88.70
2022-10-21T10:12:00.475Z,87.20
2022-10-21T10:14:39.052Z,87.80
2022-10-21T10:17:29.406Z,87.60
2022-10-21T10:20:20.867Z,86.50
2022-10-21T10:23:08.519Z,87.00
2022-10-21T10:25:39.166Z,87.60
2022-10-21T10:28:12.384Z,87.50
2022-10-21T10:30:48.832Z,86.40
2022-10-21T10:33:28.197Z,86.80
2022-10-21T10:36:05.194Z,86.80
2022-10-21T10:38:45.569Z,86.50
2022-10-21T10:41:20.897Z,86.30
2022-10-21T10:43:58.019Z,85.90
2022-10-21T10:46:37.082Z,86.00
2022-10-21T10:49:14.672Z,85.40
2022-10-21T10:51:45.865Z,86.20
2022-10-21T10:54:28.774Z,85.80
2022-10-21T10:57:40.229Z,84.70
2022-10-21T11:00:20.706Z,84.40
2022-10-21T11:02:53.143Z,85.30
2022-10-21T11:05:49.577Z,86.10
2022-10-21T11:08:20.064Z,84.80
2022-10-21T11:11:02.757Z,84.60
2022-10-21T11:13:34.108Z,84.80
2022-10-21T11:16:15.336Z,84.80
2022-10-21T11:19:08.230Z,85.00
2022-10-21T11:21:52.625Z,84.50
2022-10-21T11:24:31.364Z,84.90
2022-10-21T11:27:09.229Z,84.40
2022-10-21T11:29:58.574Z,85.30
2022-10-21T11:33:01.077Z,83.90
2022-10-21T11:36:01.272Z,84.40
2022-10-21T11:39:21.985Z,83.70
2022-10-21T11:41:56.731Z,84.00
2022-10-21T11:44:29.908Z,84.10
2022-10-21T11:47:20.685Z,84.70
2022-10-21T11:49:51.673Z,84.90
2022-10-21T11:52:58.262Z,85.00
2022-10-21T11:55:38.932Z,84.30
2022-10-21T11:58:08.382Z,85.00
2022-10-21T12:01:00.789Z,84.80
2022-10-21T12:03:31.522Z,85.00
2022-10-21T12:06:04.786Z,84.20
2022-10-21T12:08:48.278Z,84.60
2022-10-21T12:11:35.783Z,85.20
2022-10-21T12:14:37.551Z,84.50
2022-10-21T12:17:20.204Z,84.80
2022-10-21T12:20:04.152Z,85.60
2022-10-21T12:22:34.150Z,85.30
2022-10-21T12:25:09.406Z,85.30
2022-10-21T12:28:09.712Z,85.70
2022-10-21T12:30:54.073Z,86.20
2022-10-21T12:33:42.021Z,86.60
2022-10-21T12:36:24.961Z,86.50
2022-10-21T12:38:59.606Z,86.40
2022-10-21T12:41:39.384Z,86.50
2022-10-21T12:44:25.164Z,86.60
2022-10-21T12:47:01.630Z,86.20
2022-10-21T12:49:36.032Z,86.80
2022-10-21T12:52:22.024Z,87.10
2022-10-21T12:55:17.055Z,87.30
2022-10-21T12:57:45.273Z,87.50
2022-10-21T13:00:25.536Z,87.20
2022-10-21T13:03:13.010Z,87.10
2022-10-21T13:05:41.009Z,87.20
2022-10-21T13:08:19.494Z,86.90
2022-10-21T13:11:05.875Z,86.80
2022-10-21T13:13:33.904Z,86.80
2022-10-21T13:16:20.125Z,87.30
2022-10-21T13:19:01.762Z,86.60
2022-10-21T13:21:29.907Z,86.40
2022-10-21T13:24:25.476Z,86.70
2022-10-21T13:27:03.939Z,86.90
2022-10-21T13:29:34.806Z,87.20
2022-10-21T13:32:15.168Z,87.00
2022-10-21T13:34:49.670Z,87.30
2022-10-21T13:37:26.082Z,87.40
2022-10-21T13:39:56.815Z,87.20
2022-10-21T13:42:41.793Z,87.20
2022-10-21T13:45:33.086Z,87.40
2022-10-21T13:48:17.697Z,87.10
2022-10-21T13:50:49.103Z,87.20
2022-10-21T13:53:36.624Z,87.30
2022-10-21T13:56:07.205Z,87.30
2022-10-21T13:58:41.377Z,87.80
2022-10-21T14:01:25.777Z,87.70
2022-10-21T14:04:14.805Z,88.10
2022-10-21T14:06:48.498Z,88.20
2022-10-21T14:09:26.326Z,88.30
2022-10-21T14:12:07.758Z,88.30
2022-10-21T14:14:39.392Z,88.40
2022-10-21T14:17:09.508Z,88.50
2022-10-21T14:19:39.159Z,88.70
2022-10-21T14:22:10.129Z,88.90
2022-10-21T14:24:45.275Z,88.80
2022-10-21T14:27:16.038Z,89.00
2022-10-21T14:29:45.294Z,89.20
2022-10-21T14:32:20.360Z,89.00
2022-10-21T14:35:10.545Z,89.20
2022-10-21T14:37:53.134Z,89.30
2022-10-21T14:40:37.449Z,89.60
2022-10-21T14:43:32.241Z,90.00
2022-10-21T14:46:01.126Z,90.00
2022-10-21T14:48:32.432Z,90.00
2022-10-21T14:51:05.275Z,90.00
2022-10-21T14:53:44.274Z,90.10
2022-10-21T14:56:18.878Z,90.20
2022-10-21T14:58:55.324Z,90.30
2022-10-21T15:01:24.046Z,90.40
2022-10-21T15:04:03.666Z,90.50
2022-10-21T15:06:37.732Z,90.50
2022-10-21T15:09:11.725Z,90.50
2022-10-21T15:11:47.371Z,90.50
2022-10-21T15:14:18.004Z,90.60
2022-10-21T15:16:45.977Z,90.70
2022-10-21T15:19:25.327Z,90.80
2022-10-21T15:21:59.160Z,90.80
2022-10-21T15:24:29.958Z,90.80
2022-10-21T15:27:06.747Z,90.80
2022-10-21T15:29:46.887Z,90.90
2022-10-21T15:32:25.469Z,90.90
2022-10-21T15:35:16.075Z,90.90
2022-10-21T15:37:49.816Z,91.10
2022-10-21T15:40:19.101Z,91.10
2022-10-21T15:42:56.953Z,91.10
2022-10-21T15:45:24.971Z,91.20
2022-10-21T15:47:57.968Z,91.20
2022-10-21T15:50:28.655Z,91.10
2022-10-21T15:53:01.806Z,91.10
2022-10-21T15:55:32.872Z,91.10
2022-10-21T15:58:08.898Z,91.00
2022-10-21T16:00:40.943Z,91.00
2022-10-21T16:03:09.423Z,90.90
2022-10-21T16:05:38.779Z,90.80
2022-10-21T16:08:06.978Z,90.90
2022-10-21T16:10:36.850Z,90.90
2022-10-21T16:13:05.156Z,90.80
2022-10-21T16:15:32.953Z,90.90
2022-10-21T16:18:01.590Z,90.90
2022-10-21T16:20:33.815Z,90.80
2022-10-21T16:23:07.940Z,90.90
2022-10-21T16:25:38.192Z,90.80
2022-10-21T16:28:06.366Z,90.80
2022-10-21T16:30:37.209Z,90.80
2022-10-21T16:33:06.297Z,90.80
2022-10-21T16:35:34.094Z,90.80
2022-10-21T16:38:06.245Z,90.90
2022-10-21T16:40:35.379Z,90.80
2022-10-21T16:43:03.468Z,90.70
2022-10-21T16:45:34.943Z,90.90
2022-10-21T16:48:05.163Z,90.90
2022-10-21T16:50:40.718Z,90.90
2022-10-21T16:53:14.961Z,90.90
2022-10-21T16:55:43.062Z,90.80
2022-10-21T16:58:11.636Z,90.70
2022-10-21T17:00:41.514Z,90.60
2022-10-21T17:03:12.968Z,90.70
2022-10-21T17:05:43.461Z,90.70
2022-10-21T17:08:14.588Z,90.60
2022-10-21T17:10:45.193Z,90.70
2022-10-21T17:13:13.222Z,90.60
2022-10-21T17:15:41.109Z,90.90
2022-10-21T17:18:11.857Z,90.60
2022-10-21T17:20:45.636Z,90.70
2022-10-21T17:23:13.816Z,90.60
2022-10-21T17:25:41.567Z,90.60
2022-10-21T17:28:09.675Z,90.40
2022-10-21T17:30:37.441Z,90.30
2022-10-21T17:33:08.349Z,90.20
2022-10-21T17:35:38.701Z,90.10
2022-10-21T17:38:07.158Z,90.10
2022-10-21T17:40:34.953Z,90.10
2022-10-21T17:43:03.056Z,90.10
2022-10-21T17:45:30.764Z,90.00
2022-10-21T17:47:58.966Z,89.90
2022-10-21T17:50:26.922Z,89.70
2022-10-21T17:52:55.511Z,89.30
2022-10-21T17:55:24.388Z,89.30
2022-10-21T17:57:53.593Z,89.50
2022-10-21T18:00:21.502Z,89.70
2022-10-21T18:02:49.630Z,89.50
2022-10-21T18:05:17.810Z,89.30
2022-10-21T18:07:46.013Z,89.40
2022-10-21T18:10:13.808Z,89.40
2022-10-21T18:12:42.026Z,89.00
2022-10-21T18:15:10.504Z,89.00
2022-10-21T18:17:40.268Z,88.90
2022-10-21T18:20:08.936Z,88.70
2022-10-21T18:22:37.154Z,88.80
2022-10-21T18:25:05.237Z,88.70
2022-10-21T18:27:33.425Z,88.50
2022-10-21T18:30:03.303Z,88.30
2022-10-21T18:32:31.573Z,88.40
2022-10-21T18:34:59.510Z,88.50
2022-10-21T18:37:31.733Z,88.30
2022-10-21T18:39:59.477Z,88.40
2022-10-21T18:42:28.250Z,88.50
2022-10-21T18:44:56.199Z,88.70
2022-10-21T18:47:28.324Z,88.80
2022-10-21T18:49:56.079Z,88.50
2022-10-21T18:52:24.199Z,88.50
2022-10-21T18:54:51.944Z,88.20
2022-10-21T18:57:20.145Z,88.20
2022-10-21T18:59:47.987Z,87.90
2022-10-21T19:02:20.961Z,88.20
2022-10-21T19:04:49.333Z,88.10
2022-10-21T19:07:18.843Z,88.20
2022-10-21T19:09:47.505Z,88.10
2022-10-21T19:12:19.769Z,88.30
2022-10-21T19:14:51.539Z,88.40
2022-10-21T19:17:20.015Z,88.40
2022-10-21T19:19:47.795Z,88.50
2022-10-21T19:22:17.573Z,88.50
2022-10-21T19:24:45.447Z,88.60
2022-10-21T19:27:13.584Z,88.60
2022-10-21T19:29:41.530Z,88.70
2022-10-21T19:32:09.767Z,89.50
2022-10-21T19:34:37.495Z,88.60
2022-10-21T19:37:05.533Z,89.40
2022-10-21T19:39:33.226Z,89.00
2022-10-21T19:42:01.331Z,89.00
2022-10-21T19:44:29.101Z,89.00
2022-10-21T19:46:57.135Z,89.10
2022-10-21T19:49:24.883Z,89.00
2022-10-21T19:51:53.277Z,89.20
2022-10-21T19:54:21.280Z,89.50
2022-10-21T19:56:49.272Z,89.30
2022-10-21T20:02:05.073Z,89.80
2022-10-21T20:04:35.274Z,89.90
2022-10-21T20:07:04.216Z,89.90
2022-10-21T20:09:33.941Z,89.90
2022-10-21T20:12:05.204Z,89.60
2022-10-21T20:14:33.121Z,89.70
2022-10-21T20:17:01.161Z,89.80
2022-10-21T20:19:29.023Z,89.90
2022-10-21T20:21:57.177Z,89.90
2022-10-21T20:24:24.825Z,90.00
2022-10-21T20:26:54.049Z,90.00
2022-10-21T20:29:23.201Z,90.10
2022-10-21T20:31:51.349Z,90.20
2022-10-21T20:34:19.138Z,90.20
2022-10-21T20:36:47.284Z,90.30
2022-10-21T20:39:15.105Z,90.30
2022-10-21T20:41:43.192Z,90.30
2022-10-21T20:44:16.450Z,90.30
2022-10-21T20:46:45.379Z,90.30
2022-10-21T20:49:13.638Z,90.40
2022-10-21T20:51:42.727Z,90.40
2022-10-21T20:54:14.883Z,90.40
2022-10-21T20:56:43.443Z,90.50
2022-10-21T20:59:15.644Z,90.60
2022-10-21T21:01:46.586Z,90.60
2022-10-21T21:04:17.482Z,90.70
2022-10-21T21:06:47.732Z,90.70
2022-10-21T21:09:50.590Z,90.70
2022-10-21T21:12:07.451Z,90.80
2022-10-21T21:14:35.300Z,90.90
2022-10-21T21:17:03.985Z,91.20
2022-10-21T21:19:32.562Z,90.90
2022-10-21T21:22:00.737Z,90.90
2022-10-21T21:24:28.497Z,91.10
2022-10-21T21:26:56.586Z,91.10
2022-10-21T21:29:24.379Z,91.10
2022-10-21T21:31:52.479Z,91.10
2022-10-21T21:34:20.276Z,91.10
2022-10-21T21:36:51.081Z,91.10
2022-10-21T21:39:18.822Z,91.10
2022-10-21T21:41:46.972Z,91.10
2022-10-21T21:44:14.913Z,91.20
2022-10-21T21:46:43.015Z,91.20
2022-10-21T21:49:10.793Z,91.30
2022-10-21T21:51:40.210Z,91.30
2022-10-21T21:54:08.099Z,91.30
2022-10-21T21:56:36.916Z,91.20
2022-10-21T21:59:06.195Z,91.10
2022-10-21T22:01:34.634Z,91.20
2022-10-21T22:04:03.143Z,91.30
2022-10-21T22:06:34.157Z,91.30
2022-10-21T22:09:02.876Z,91.30
2022-10-21T22:11:33.337Z,91.30
2022-10-21T22:14:02.019Z,91.20
2022-10-21T22:16:30.658Z,91.30
2022-10-21T22:19:00.797Z,91.40
2022-10-21T22:21:31.139Z,91.50
2022-10-21T22:23:59.360Z,91.70
2022-10-21T22:26:27.814Z,91.70
2022-10-21T22:28:56.153Z,91.70
2022-10-21T22:31:29.137Z,91.70
2022-10-21T22:34:00.852Z,91.70
2022-10-21T22:36:28.905Z,91.80
2022-10-21T22:38:57.390Z,91.80
2022-10-21T22:41:26.039Z,91.80
2022-10-21T22:43:53.831Z,91.90
2022-10-21T22:46:33.509Z,92.00
2022-10-21T22:49:04.328Z,92.00
2022-10-21T22:51:33.562Z,92.00
2022-10-21T22:54:02.000Z,92.10
2022-10-21T22:56:30.734Z,92.10
2022-10-21T22:58:59.050Z,92.10
2022-10-21T23:01:31.281Z,92.20
2022-10-21T23:04:03.895Z,92.20
2022-10-21T23:06:33.908Z,92.30
2022-10-21T23:09:03.331Z,92.20
2022-10-21T23:11:32.468Z,92.20
2022-10-21T23:14:08.509Z,92.20
2022-10-21T23:16:37.821Z,92.20
2022-10-21T23:19:07.855Z,92.30
2022-10-21T23:21:40.062Z,92.30
2022-10-21T23:24:08.243Z,92.30
2022-10-21T23:26:36.402Z,92.30
2022-10-21T23:29:04.875Z,92.40
2022-10-21T23:31:32.895Z,92.30
2022-10-21T23:34:00.719Z,92.30
2022-10-21T23:36:28.843Z,92.20
2022-10-21T23:38:57.069Z,92.20
2022-10-21T23:41:25.336Z,92.30
2022-10-21T23:43:53.197Z,92.40
2022-10-21T23:46:22.778Z,92.30
2022-10-21T23:48:50.856Z,92.40
2022-10-21T23:51:19.524Z,92.50
2022-10-21T23:53:47.499Z,92.40
2022-10-21T23:56:15.589Z,92.50
2022-10-21T23:58:43.450Z,92.50
